sensor_id;sensor_type;location;lat;lon;timestamp;P1;durP1;ratioP1;P2;durP2;ratioP2
51854;SDS011;37895;53.240;6.572;2024-01-30T00:02:16;30.55;;;26.77;;
51854;SDS011;37895;53.240;6.572;2024-01-30T00:04:42;28.67;;;25.75;;
51854;SDS011;37895;53.240;6.572;2024-01-30T00:07:07;29.30;;;26.50;;
51854;SDS011;37895;53.240;6.572;2024-01-30T00:09:33;28.50;;;25.70;;
51854;SDS011;37895;53.240;6.572;2024-01-30T00:11:59;31.80;;;26.63;;
51854;SDS011;37895;53.240;6.572;2024-01-30T00:14:24;28.98;;;25.92;;
51854;SDS011;37895;53.240;6.572;2024-01-30T00:16:50;30.02;;;27.02;;
51854;SDS011;37895;53.240;6.572;2024-01-30T00:19:16;31.30;;;27.95;;
51854;SDS011;37895;53.240;6.572;2024-01-30T00:21:42;30.55;;;27.25;;
51854;SDS011;37895;53.240;6.572;2024-01-30T00:24:08;30.52;;;27.38;;
51854;SDS011;37895;53.240;6.572;2024-01-30T00:26:34;31.48;;;28.05;;
51854;SDS011;37895;53.240;6.572;2024-01-30T00:28:59;31.30;;;27.95;;
51854;SDS011;37895;53.240;6.572;2024-01-30T00:31:25;31.63;;;28.33;;
51854;SDS011;37895;53.240;6.572;2024-01-30T00:33:51;30.58;;;27.48;;
51854;SDS011;37895;53.240;6.572;2024-01-30T00:36:16;28.85;;;25.75;;
51854;SDS011;37895;53.240;6.572;2024-01-30T00:38:42;28.98;;;25.98;;
51854;SDS011;37895;53.240;6.572;2024-01-30T00:41:08;32.75;;;29.23;;
51854;SDS011;37895;53.240;6.572;2024-01-30T00:46:00;30.02;;;26.92;;
51854;SDS011;37895;53.240;6.572;2024-01-30T00:48:26;31.42;;;28.13;;
51854;SDS011;37895;53.240;6.572;2024-01-30T00:50:51;32.35;;;28.83;;
51854;SDS011;37895;53.240;6.572;2024-01-30T00:53:17;34.15;;;30.60;;
51854;SDS011;37895;53.240;6.572;2024-01-30T00:55:43;30.90;;;27.60;;
51854;SDS011;37895;53.240;6.572;2024-01-30T00:58:09;32.92;;;29.38;;
51854;SDS011;37895;53.240;6.572;2024-01-30T01:00:34;32.70;;;28.98;;
51854;SDS011;37895;53.240;6.572;2024-01-30T01:03:00;29.42;;;26.38;;
51854;SDS011;37895;53.240;6.572;2024-01-30T01:05:26;31.77;;;28.45;;
51854;SDS011;37895;53.240;6.572;2024-01-30T01:07:52;34.00;;;30.20;;
51854;SDS011;37895;53.240;6.572;2024-01-30T01:10:17;34.53;;;29.08;;
51854;SDS011;37895;53.240;6.572;2024-01-30T01:12:43;31.80;;;28.50;;
51854;SDS011;37895;53.240;6.572;2024-01-30T01:15:10;32.30;;;28.90;;
51854;SDS011;37895;53.240;6.572;2024-01-30T01:17:35;32.42;;;28.95;;
51854;SDS011;37895;53.240;6.572;2024-01-30T01:20:02;31.58;;;28.20;;
51854;SDS011;37895;53.240;6.572;2024-01-30T01:22:28;32.83;;;29.33;;
51854;SDS011;37895;53.240;6.572;2024-01-30T01:24:54;33.85;;;28.38;;
51854;SDS011;37895;53.240;6.572;2024-01-30T01:27:20;32.65;;;29.25;;
51854;SDS011;37895;53.240;6.572;2024-01-30T01:29:46;31.35;;;28.02;;
51854;SDS011;37895;53.240;6.572;2024-01-30T01:32:11;30.85;;;27.63;;
51854;SDS011;37895;53.240;6.572;2024-01-30T01:34:37;32.72;;;29.35;;
51854;SDS011;37895;53.240;6.572;2024-01-30T01:37:03;33.00;;;29.63;;
51854;SDS011;37895;53.240;6.572;2024-01-30T01:39:29;31.40;;;28.00;;
51854;SDS011;37895;53.240;6.572;2024-01-30T01:41:54;32.03;;;28.45;;
51854;SDS011;37895;53.240;6.572;2024-01-30T01:44:20;30.92;;;27.60;;
51854;SDS011;37895;53.240;6.572;2024-01-30T01:46:45;32.75;;;29.35;;
51854;SDS011;37895;53.240;6.572;2024-01-30T01:49:12;32.47;;;27.65;;
51854;SDS011;37895;53.240;6.572;2024-01-30T01:51:39;32.35;;;28.90;;
51854;SDS011;37895;53.240;6.572;2024-01-30T01:54:06;32.95;;;29.45;;
51854;SDS011;37895;53.240;6.572;2024-01-30T01:56:33;32.08;;;28.75;;
51854;SDS011;37895;53.240;6.572;2024-01-30T01:59:00;31.17;;;27.88;;
51854;SDS011;37895;53.240;6.572;2024-01-30T02:01:31;31.17;;;27.98;;
51854;SDS011;37895;53.240;6.572;2024-01-30T02:03:58;31.80;;;28.17;;
51854;SDS011;37895;53.240;6.572;2024-01-30T02:06:27;33.38;;;29.02;;
51854;SDS011;37895;53.240;6.572;2024-01-30T02:08:53;32.47;;;29.30;;
51854;SDS011;37895;53.240;6.572;2024-01-30T02:11:22;30.95;;;27.75;;
51854;SDS011;37895;53.240;6.572;2024-01-30T02:13:49;32.60;;;29.08;;
51854;SDS011;37895;53.240;6.572;2024-01-30T02:16:15;30.58;;;27.15;;
51854;SDS011;37895;53.240;6.572;2024-01-30T02:18:42;33.00;;;29.58;;
51854;SDS011;37895;53.240;6.572;2024-01-30T02:21:11;31.30;;;28.08;;
51854;SDS011;37895;53.240;6.572;2024-01-30T02:23:37;31.30;;;28.05;;
51854;SDS011;37895;53.240;6.572;2024-01-30T02:26:04;31.42;;;28.27;;
51854;SDS011;37895;53.240;6.572;2024-01-30T02:28:30;30.58;;;27.35;;
51854;SDS011;37895;53.240;6.572;2024-01-30T02:30:55;31.60;;;28.38;;
51854;SDS011;37895;53.240;6.572;2024-01-30T02:33:21;30.63;;;27.33;;
51854;SDS011;37895;53.240;6.572;2024-01-30T02:35:47;31.45;;;28.02;;
51854;SDS011;37895;53.240;6.572;2024-01-30T02:38:13;31.83;;;27.73;;
51854;SDS011;37895;53.240;6.572;2024-01-30T02:40:40;30.70;;;27.60;;
51854;SDS011;37895;53.240;6.572;2024-01-30T02:43:05;30.63;;;27.42;;
51854;SDS011;37895;53.240;6.572;2024-01-30T02:45:31;30.55;;;27.33;;
51854;SDS011;37895;53.240;6.572;2024-01-30T02:47:56;32.50;;;27.27;;
51854;SDS011;37895;53.240;6.572;2024-01-30T02:50:22;31.25;;;27.40;;
51854;SDS011;37895;53.240;6.572;2024-01-30T02:52:48;31.85;;;28.55;;
51854;SDS011;37895;53.240;6.572;2024-01-30T02:55:13;28.73;;;25.83;;
51854;SDS011;37895;53.240;6.572;2024-01-30T02:57:42;29.20;;;26.27;;
51854;SDS011;37895;53.240;6.572;2024-01-30T03:00:08;30.77;;;27.67;;
51854;SDS011;37895;53.240;6.572;2024-01-30T03:02:34;29.67;;;26.67;;
51854;SDS011;37895;53.240;6.572;2024-01-30T03:05:00;30.58;;;26.95;;
51854;SDS011;37895;53.240;6.572;2024-01-30T03:07:26;29.92;;;26.92;;
51854;SDS011;37895;53.240;6.572;2024-01-30T03:09:51;30.23;;;27.17;;
51854;SDS011;37895;53.240;6.572;2024-01-30T03:12:17;29.33;;;25.98;;
51854;SDS011;37895;53.240;6.572;2024-01-30T03:14:43;28.15;;;25.13;;
51854;SDS011;37895;53.240;6.572;2024-01-30T03:17:09;30.02;;;27.05;;
51854;SDS011;37895;53.240;6.572;2024-01-30T03:19:34;30.13;;;26.98;;
51854;SDS011;37895;53.240;6.572;2024-01-30T03:22:00;29.08;;;25.33;;
51854;SDS011;37895;53.240;6.572;2024-01-30T03:24:26;30.05;;;26.98;;
51854;SDS011;37895;53.240;6.572;2024-01-30T03:26:51;29.75;;;26.65;;
51854;SDS011;37895;53.240;6.572;2024-01-30T03:29:17;29.08;;;26.20;;
51854;SDS011;37895;53.240;6.572;2024-01-30T03:31:43;28.83;;;25.90;;
51854;SDS011;37895;53.240;6.572;2024-01-30T03:34:09;27.95;;;25.15;;
51854;SDS011;37895;53.240;6.572;2024-01-30T03:36:34;27.27;;;24.58;;
51854;SDS011;37895;53.240;6.572;2024-01-30T03:39:00;28.00;;;25.15;;
51854;SDS011;37895;53.240;6.572;2024-01-30T03:43:52;32.00;;;26.65;;
51854;SDS011;37895;53.240;6.572;2024-01-30T03:46:17;29.67;;;26.30;;
51854;SDS011;37895;53.240;6.572;2024-01-30T03:48:43;27.42;;;24.52;;
51854;SDS011;37895;53.240;6.572;2024-01-30T03:51:09;29.40;;;26.27;;
51854;SDS011;37895;53.240;6.572;2024-01-30T03:53:41;27.63;;;24.77;;
51854;SDS011;37895;53.240;6.572;2024-01-30T03:56:07;28.02;;;25.13;;
51854;SDS011;37895;53.240;6.572;2024-01-30T03:58:33;27.38;;;24.40;;
51854;SDS011;37895;53.240;6.572;2024-01-30T04:00:58;28.17;;;25.10;;
51854;SDS011;37895;53.240;6.572;2024-01-30T04:03:24;27.17;;;24.48;;
51854;SDS011;37895;53.240;6.572;2024-01-30T04:05:51;26.65;;;24.00;;
51854;SDS011;37895;53.240;6.572;2024-01-30T04:08:17;27.60;;;24.75;;
51854;SDS011;37895;53.240;6.572;2024-01-30T04:10:43;26.45;;;23.65;;
51854;SDS011;37895;53.240;6.572;2024-01-30T04:13:08;28.30;;;24.83;;
51854;SDS011;37895;53.240;6.572;2024-01-30T04:15:34;26.67;;;23.92;;
51854;SDS011;37895;53.240;6.572;2024-01-30T04:18:00;26.30;;;23.60;;
51854;SDS011;37895;53.240;6.572;2024-01-30T04:20:26;26.13;;;23.33;;
51854;SDS011;37895;53.240;6.572;2024-01-30T04:22:51;25.75;;;23.15;;
51854;SDS011;37895;53.240;6.572;2024-01-30T04:25:17;25.38;;;22.83;;
51854;SDS011;37895;53.240;6.572;2024-01-30T04:27:43;25.05;;;22.55;;
51854;SDS011;37895;53.240;6.572;2024-01-30T04:30:08;25.63;;;23.02;;
51854;SDS011;37895;53.240;6.572;2024-01-30T04:32:35;24.02;;;21.42;;
51854;SDS011;37895;53.240;6.572;2024-01-30T04:37:27;24.90;;;22.20;;
51854;SDS011;37895;53.240;6.572;2024-01-30T04:39:52;25.08;;;22.48;;
51854;SDS011;37895;53.240;6.572;2024-01-30T04:42:18;24.30;;;21.70;;
51854;SDS011;37895;53.240;6.572;2024-01-30T04:44:44;24.38;;;21.83;;
51854;SDS011;37895;53.240;6.572;2024-01-30T04:47:10;23.15;;;20.85;;
51854;SDS011;37895;53.240;6.572;2024-01-30T04:49:38;24.27;;;21.67;;
51854;SDS011;37895;53.240;6.572;2024-01-30T04:52:04;22.63;;;20.33;;
51854;SDS011;37895;53.240;6.572;2024-01-30T04:54:34;22.75;;;20.55;;
51854;SDS011;37895;53.240;6.572;2024-01-30T04:59:25;25.38;;;20.83;;
51854;SDS011;37895;53.240;6.572;2024-01-30T05:01:51;22.40;;;20.23;;
51854;SDS011;37895;53.240;6.572;2024-01-30T05:04:17;24.15;;;21.75;;
51854;SDS011;37895;53.240;6.572;2024-01-30T05:06:42;22.45;;;20.17;;
51854;SDS011;37895;53.240;6.572;2024-01-30T05:09:08;21.98;;;19.83;;
51854;SDS011;37895;53.240;6.572;2024-01-30T05:11:40;22.25;;;19.95;;
51854;SDS011;37895;53.240;6.572;2024-01-30T05:14:06;22.75;;;20.35;;
51854;SDS011;37895;53.240;6.572;2024-01-30T05:16:33;22.20;;;19.80;;
51854;SDS011;37895;53.240;6.572;2024-01-30T05:18:59;22.42;;;20.13;;
51854;SDS011;37895;53.240;6.572;2024-01-30T05:21:25;21.27;;;19.17;;
51854;SDS011;37895;53.240;6.572;2024-01-30T05:23:50;21.23;;;19.13;;
51854;SDS011;37895;53.240;6.572;2024-01-30T05:26:16;23.08;;;20.70;;
51854;SDS011;37895;53.240;6.572;2024-01-30T05:31:09;22.75;;;20.35;;
51854;SDS011;37895;53.240;6.572;2024-01-30T05:33:35;20.83;;;18.73;;
51854;SDS011;37895;53.240;6.572;2024-01-30T05:36:01;20.65;;;18.23;;
51854;SDS011;37895;53.240;6.572;2024-01-30T05:38:27;21.10;;;18.95;;
51854;SDS011;37895;53.240;6.572;2024-01-30T05:40:57;20.98;;;18.98;;
51854;SDS011;37895;53.240;6.572;2024-01-30T05:43:23;21.30;;;19.15;;
51854;SDS011;37895;53.240;6.572;2024-01-30T05:45:49;20.88;;;18.77;;
51854;SDS011;37895;53.240;6.572;2024-01-30T05:48:15;21.38;;;19.20;;
51854;SDS011;37895;53.240;6.572;2024-01-30T05:50:41;22.52;;;19.88;;
51854;SDS011;37895;53.240;6.572;2024-01-30T05:53:06;23.13;;;20.20;;
51854;SDS011;37895;53.240;6.572;2024-01-30T05:55:32;22.02;;;19.73;;
51854;SDS011;37895;53.240;6.572;2024-01-30T05:57:57;23.00;;;20.67;;
51854;SDS011;37895;53.240;6.572;2024-01-30T06:00:23;21.83;;;19.52;;
51854;SDS011;37895;53.240;6.572;2024-01-30T06:02:49;21.90;;;19.70;;
51854;SDS011;37895;53.240;6.572;2024-01-30T06:05:14;22.90;;;20.13;;
51854;SDS011;37895;53.240;6.572;2024-01-30T06:07:40;22.13;;;20.13;;
51854;SDS011;37895;53.240;6.572;2024-01-30T06:10:06;22.33;;;19.30;;
51854;SDS011;37895;53.240;6.572;2024-01-30T06:12:32;23.90;;;21.30;;
51854;SDS011;37895;53.240;6.572;2024-01-30T06:14:58;20.90;;;18.60;;
51854;SDS011;37895;53.240;6.572;2024-01-30T06:17:24;23.10;;;20.70;;
51854;SDS011;37895;53.240;6.572;2024-01-30T06:19:49;21.40;;;19.13;;
51854;SDS011;37895;53.240;6.572;2024-01-30T06:22:15;23.05;;;20.65;;
51854;SDS011;37895;53.240;6.572;2024-01-30T06:24:41;21.40;;;19.13;;
51854;SDS011;37895;53.240;6.572;2024-01-30T06:27:07;22.08;;;19.88;;
51854;SDS011;37895;53.240;6.572;2024-01-30T06:29:33;20.10;;;18.13;;
51854;SDS011;37895;53.240;6.572;2024-01-30T06:31:59;19.48;;;17.40;;
51854;SDS011;37895;53.240;6.572;2024-01-30T06:34:26;21.42;;;19.13;;
51854;SDS011;37895;53.240;6.572;2024-01-30T06:36:52;20.75;;;18.60;;
51854;SDS011;37895;53.240;6.572;2024-01-30T06:39:18;22.15;;;19.88;;
51854;SDS011;37895;53.240;6.572;2024-01-30T06:41:44;22.38;;;20.17;;
51854;SDS011;37895;53.240;6.572;2024-01-30T06:44:11;22.08;;;18.52;;
51854;SDS011;37895;53.240;6.572;2024-01-30T06:46:37;20.42;;;18.13;;
51854;SDS011;37895;53.240;6.572;2024-01-30T06:49:11;21.67;;;19.35;;
51854;SDS011;37895;53.240;6.572;2024-01-30T06:51:36;21.65;;;19.48;;
51854;SDS011;37895;53.240;6.572;2024-01-30T06:54:05;21.73;;;19.48;;
51854;SDS011;37895;53.240;6.572;2024-01-30T06:56:30;20.25;;;18.25;;
51854;SDS011;37895;53.240;6.572;2024-01-30T06:58:56;20.08;;;18.08;;
51854;SDS011;37895;53.240;6.572;2024-01-30T07:01:28;20.42;;;18.30;;
51854;SDS011;37895;53.240;6.572;2024-01-30T07:03:58;20.13;;;18.13;;
51854;SDS011;37895;53.240;6.572;2024-01-30T07:06:29;20.38;;;18.33;;
51854;SDS011;37895;53.240;6.572;2024-01-30T07:08:57;21.33;;;19.20;;
51854;SDS011;37895;53.240;6.572;2024-01-30T07:11:25;21.08;;;18.88;;
51854;SDS011;37895;53.240;6.572;2024-01-30T07:16:17;21.27;;;19.25;;
51854;SDS011;37895;53.240;6.572;2024-01-30T07:18:45;20.70;;;18.20;;
51854;SDS011;37895;53.240;6.572;2024-01-30T07:21:11;21.88;;;19.58;;
51854;SDS011;37895;53.240;6.572;2024-01-30T07:23:37;22.05;;;18.67;;
51854;SDS011;37895;53.240;6.572;2024-01-30T07:26:04;22.88;;;18.00;;
51854;SDS011;37895;53.240;6.572;2024-01-30T07:28:31;20.70;;;18.60;;
51854;SDS011;37895;53.240;6.572;2024-01-30T07:30:57;20.50;;;18.42;;
51854;SDS011;37895;53.240;6.572;2024-01-30T07:33:23;19.90;;;17.95;;
51854;SDS011;37895;53.240;6.572;2024-01-30T07:35:49;20.60;;;18.60;;
51854;SDS011;37895;53.240;6.572;2024-01-30T07:38:15;20.83;;;18.73;;
51854;SDS011;37895;53.240;6.572;2024-01-30T07:40:40;20.48;;;18.42;;
51854;SDS011;37895;53.240;6.572;2024-01-30T07:43:06;20.38;;;18.38;;
51854;SDS011;37895;53.240;6.572;2024-01-30T07:45:32;21.52;;;19.17;;
51854;SDS011;37895;53.240;6.572;2024-01-30T07:47:58;20.98;;;18.80;;
51854;SDS011;37895;53.240;6.572;2024-01-30T07:50:25;20.35;;;18.15;;
51854;SDS011;37895;53.240;6.572;2024-01-30T07:52:50;20.85;;;18.25;;
51854;SDS011;37895;53.240;6.572;2024-01-30T07:55:19;21.00;;;18.73;;
51854;SDS011;37895;53.240;6.572;2024-01-30T07:57:47;20.88;;;18.67;;
51854;SDS011;37895;53.240;6.572;2024-01-30T08:00:13;19.98;;;17.85;;
51854;SDS011;37895;53.240;6.572;2024-01-30T08:05:05;20.25;;;18.15;;
51854;SDS011;37895;53.240;6.572;2024-01-30T08:07:30;20.52;;;18.42;;
51854;SDS011;37895;53.240;6.572;2024-01-30T08:09:56;20.77;;;18.83;;
51854;SDS011;37895;53.240;6.572;2024-01-30T08:12:22;20.30;;;17.92;;
51854;SDS011;37895;53.240;6.572;2024-01-30T08:14:47;19.98;;;17.88;;
51854;SDS011;37895;53.240;6.572;2024-01-30T08:17:13;20.63;;;18.45;;
51854;SDS011;37895;53.240;6.572;2024-01-30T08:19:38;26.75;;;18.23;;
51854;SDS011;37895;53.240;6.572;2024-01-30T08:22:04;23.63;;;16.95;;
51854;SDS011;37895;53.240;6.572;2024-01-30T08:24:29;20.05;;;18.00;;
51854;SDS011;37895;53.240;6.572;2024-01-30T08:26:55;20.42;;;18.42;;
51854;SDS011;37895;53.240;6.572;2024-01-30T08:29:20;20.23;;;18.23;;
51854;SDS011;37895;53.240;6.572;2024-01-30T08:31:46;20.10;;;18.00;;
51854;SDS011;37895;53.240;6.572;2024-01-30T08:34:12;20.92;;;17.60;;
51854;SDS011;37895;53.240;6.572;2024-01-30T08:36:37;21.45;;;17.85;;
51854;SDS011;37895;53.240;6.572;2024-01-30T08:39:03;23.17;;;17.63;;
51854;SDS011;37895;53.240;6.572;2024-01-30T08:41:30;19.73;;;17.65;;
51854;SDS011;37895;53.240;6.572;2024-01-30T08:43:56;19.58;;;17.42;;
51854;SDS011;37895;53.240;6.572;2024-01-30T08:46:21;20.58;;;16.67;;
51854;SDS011;37895;53.240;6.572;2024-01-30T08:48:47;19.35;;;17.30;;
51854;SDS011;37895;53.240;6.572;2024-01-30T08:51:12;19.90;;;17.30;;
51854;SDS011;37895;53.240;6.572;2024-01-30T08:53:40;19.95;;;17.98;;
51854;SDS011;37895;53.240;6.572;2024-01-30T08:56:06;19.02;;;17.08;;
51854;SDS011;37895;53.240;6.572;2024-01-30T08:58:33;19.30;;;17.20;;
51854;SDS011;37895;53.240;6.572;2024-01-30T09:00:58;19.98;;;16.70;;
51854;SDS011;37895;53.240;6.572;2024-01-30T09:03:24;18.60;;;16.38;;
51854;SDS011;37895;53.240;6.572;2024-01-30T09:05:50;18.98;;;17.02;;
51854;SDS011;37895;53.240;6.572;2024-01-30T09:08:15;20.20;;;17.85;;
51854;SDS011;37895;53.240;6.572;2024-01-30T09:10:41;19.33;;;17.27;;
51854;SDS011;37895;53.240;6.572;2024-01-30T09:13:07;19.27;;;16.58;;
51854;SDS011;37895;53.240;6.572;2024-01-30T09:15:32;19.98;;;16.35;;
51854;SDS011;37895;53.240;6.572;2024-01-30T09:17:58;18.70;;;15.90;;
51854;SDS011;37895;53.240;6.572;2024-01-30T09:20:23;19.05;;;17.05;;
51854;SDS011;37895;53.240;6.572;2024-01-30T09:22:49;18.92;;;16.67;;
51854;SDS011;37895;53.240;6.572;2024-01-30T09:25:15;19.35;;;17.25;;
51854;SDS011;37895;53.240;6.572;2024-01-30T09:27:41;17.85;;;15.95;;
51854;SDS011;37895;53.240;6.572;2024-01-30T09:30:10;18.52;;;16.55;;
51854;SDS011;37895;53.240;6.572;2024-01-30T09:32:40;19.77;;;16.77;;
51854;SDS011;37895;53.240;6.572;2024-01-30T09:35:07;18.45;;;16.27;;
51854;SDS011;37895;53.240;6.572;2024-01-30T09:37:33;16.83;;;14.98;;
51854;SDS011;37895;53.240;6.572;2024-01-30T09:39:58;18.67;;;16.63;;
51854;SDS011;37895;53.240;6.572;2024-01-30T09:42:26;21.85;;;15.63;;
51854;SDS011;37895;53.240;6.572;2024-01-30T09:44:59;20.88;;;16.88;;
51854;SDS011;37895;53.240;6.572;2024-01-30T09:47:25;17.48;;;15.60;;
51854;SDS011;37895;53.240;6.572;2024-01-30T09:49:51;20.02;;;15.80;;
51854;SDS011;37895;53.240;6.572;2024-01-30T09:52:17;18.08;;;16.13;;
51854;SDS011;37895;53.240;6.572;2024-01-30T09:54:43;20.63;;;16.05;;
51854;SDS011;37895;53.240;6.572;2024-01-30T09:57:11;17.52;;;15.73;;
51854;SDS011;37895;53.240;6.572;2024-01-30T09:59:37;18.05;;;15.88;;
51854;SDS011;37895;53.240;6.572;2024-01-30T10:02:03;17.10;;;15.15;;
51854;SDS011;37895;53.240;6.572;2024-01-30T10:04:30;20.83;;;15.93;;
51854;SDS011;37895;53.240;6.572;2024-01-30T10:09:21;21.50;;;16.08;;
51854;SDS011;37895;53.240;6.572;2024-01-30T10:11:48;21.40;;;15.65;;
51854;SDS011;37895;53.240;6.572;2024-01-30T10:14:16;19.27;;;16.02;;
51854;SDS011;37895;53.240;6.572;2024-01-30T10:16:41;18.10;;;15.82;;
51854;SDS011;37895;53.240;6.572;2024-01-30T10:19:09;19.58;;;15.38;;
51854;SDS011;37895;53.240;6.572;2024-01-30T10:21:35;19.50;;;16.00;;
51854;SDS011;37895;53.240;6.572;2024-01-30T10:24:00;20.52;;;15.85;;
51854;SDS011;37895;53.240;6.572;2024-01-30T10:26:26;20.83;;;15.40;;
51854;SDS011;37895;53.240;6.572;2024-01-30T10:28:54;19.88;;;15.95;;
51854;SDS011;37895;53.240;6.572;2024-01-30T10:31:20;21.35;;;16.45;;
51854;SDS011;37895;53.240;6.572;2024-01-30T10:33:45;20.75;;;16.25;;
51854;SDS011;37895;53.240;6.572;2024-01-30T10:36:13;19.65;;;16.00;;
51854;SDS011;37895;53.240;6.572;2024-01-30T10:38:40;20.00;;;16.42;;
51854;SDS011;37895;53.240;6.572;2024-01-30T10:41:07;19.08;;;16.25;;
51854;SDS011;37895;53.240;6.572;2024-01-30T10:43:40;22.25;;;16.50;;
51854;SDS011;37895;53.240;6.572;2024-01-30T10:46:10;20.25;;;16.33;;
51854;SDS011;37895;53.240;6.572;2024-01-30T10:48:50;22.95;;;16.45;;
51854;SDS011;37895;53.240;6.572;2024-01-30T10:51:23;21.77;;;16.50;;
51854;SDS011;37895;53.240;6.572;2024-01-30T10:53:51;19.48;;;16.42;;
51854;SDS011;37895;53.240;6.572;2024-01-30T10:56:18;19.48;;;14.77;;
51854;SDS011;37895;53.240;6.572;2024-01-30T10:58:46;16.52;;;14.73;;
51854;SDS011;37895;53.240;6.572;2024-01-30T11:01:17;19.48;;;15.82;;
51854;SDS011;37895;53.240;6.572;2024-01-30T11:03:44;18.92;;;15.20;;
51854;SDS011;37895;53.240;6.572;2024-01-30T11:06:10;19.88;;;16.65;;
51854;SDS011;37895;53.240;6.572;2024-01-30T11:08:43;21.27;;;15.77;;
51854;SDS011;37895;53.240;6.572;2024-01-30T11:11:11;18.23;;;15.43;;
51854;SDS011;37895;53.240;6.572;2024-01-30T11:13:37;20.33;;;15.73;;
51854;SDS011;37895;53.240;6.572;2024-01-30T11:16:04;18.15;;;15.15;;
51854;SDS011;37895;53.240;6.572;2024-01-30T11:18:30;17.80;;;14.60;;
51854;SDS011;37895;53.240;6.572;2024-01-30T11:20:57;17.65;;;14.77;;
51854;SDS011;37895;53.240;6.572;2024-01-30T11:23:25;18.55;;;13.75;;
51854;SDS011;37895;53.240;6.572;2024-01-30T11:28:17;19.48;;;13.77;;
51854;SDS011;37895;53.240;6.572;2024-01-30T11:30:43;21.33;;;14.38;;
51854;SDS011;37895;53.240;6.572;2024-01-30T11:33:10;17.00;;;13.27;;
51854;SDS011;37895;53.240;6.572;2024-01-30T11:35:41;15.50;;;11.93;;
51854;SDS011;37895;53.240;6.572;2024-01-30T11:38:08;15.65;;;11.90;;
51854;SDS011;37895;53.240;6.572;2024-01-30T11:40:34;17.08;;;10.90;;
51854;SDS011;37895;53.240;6.572;2024-01-30T11:43:03;16.90;;;9.80;;
51854;SDS011;37895;53.240;6.572;2024-01-30T11:45:30;14.43;;;9.60;;
51854;SDS011;37895;53.240;6.572;2024-01-30T11:47:56;14.82;;;9.18;;
51854;SDS011;37895;53.240;6.572;2024-01-30T11:50:25;15.05;;;10.07;;
51854;SDS011;37895;53.240;6.572;2024-01-30T11:52:51;14.45;;;9.00;;
51854;SDS011;37895;53.240;6.572;2024-01-30T11:55:17;16.58;;;9.35;;
51854;SDS011;37895;53.240;6.572;2024-01-30T11:57:43;18.80;;;8.90;;
51854;SDS011;37895;53.240;6.572;2024-01-30T12:00:16;14.68;;;8.70;;
51854;SDS011;37895;53.240;6.572;2024-01-30T12:02:43;13.02;;;8.05;;
51854;SDS011;37895;53.240;6.572;2024-01-30T12:05:09;13.52;;;8.77;;
51854;SDS011;37895;53.240;6.572;2024-01-30T12:07:35;15.25;;;9.05;;
51854;SDS011;37895;53.240;6.572;2024-01-30T12:12:27;17.33;;;9.23;;
51854;SDS011;37895;53.240;6.572;2024-01-30T12:14:54;7.32;;;5.70;;
51854;SDS011;37895;53.240;6.572;2024-01-30T12:17:38;8.32;;;5.68;;
51854;SDS011;37895;53.240;6.572;2024-01-30T12:20:08;7.63;;;4.80;;
51854;SDS011;37895;53.240;6.572;2024-01-30T12:22:38;5.80;;;3.70;;
51854;SDS011;37895;53.240;6.572;2024-01-30T12:25:08;4.30;;;3.90;;
51854;SDS011;37895;53.240;6.572;2024-01-30T12:27:35;5.30;;;3.80;;
51854;SDS011;37895;53.240;6.572;2024-01-30T12:30:04;3.85;;;3.45;;
51854;SDS011;37895;53.240;6.572;2024-01-30T12:32:37;5.47;;;3.40;;
51854;SDS011;37895;53.240;6.572;2024-01-30T12:35:23;4.80;;;2.92;;
51854;SDS011;37895;53.240;6.572;2024-01-30T12:37:49;4.28;;;3.28;;
51854;SDS011;37895;53.240;6.572;2024-01-30T12:40:15;5.80;;;3.10;;
51854;SDS011;37895;53.240;6.572;2024-01-30T12:42:41;4.75;;;2.85;;
51854;SDS011;37895;53.240;6.572;2024-01-30T12:45:08;3.72;;;2.70;;
51854;SDS011;37895;53.240;6.572;2024-01-30T12:47:34;5.22;;;2.78;;
51854;SDS011;37895;53.240;6.572;2024-01-30T12:50:00;3.80;;;2.70;;
51854;SDS011;37895;53.240;6.572;2024-01-30T12:52:25;5.82;;;3.05;;
51854;SDS011;37895;53.240;6.572;2024-01-30T12:54:51;3.40;;;2.40;;
51854;SDS011;37895;53.240;6.572;2024-01-30T12:57:17;5.13;;;3.20;;
51854;SDS011;37895;53.240;6.572;2024-01-30T13:02:09;3.13;;;2.78;;
51854;SDS011;37895;53.240;6.572;2024-01-30T13:04:35;3.22;;;2.30;;
51854;SDS011;37895;53.240;6.572;2024-01-30T13:07:01;3.80;;;2.78;;
51854;SDS011;37895;53.240;6.572;2024-01-30T13:09:29;4.22;;;2.67;;
51854;SDS011;37895;53.240;6.572;2024-01-30T13:11:54;3.05;;;2.60;;
51854;SDS011;37895;53.240;6.572;2024-01-30T13:14:20;3.80;;;2.60;;
51854;SDS011;37895;53.240;6.572;2024-01-30T13:16:46;5.82;;;2.83;;
51854;SDS011;37895;53.240;6.572;2024-01-30T13:19:11;2.97;;;2.58;;
51854;SDS011;37895;53.240;6.572;2024-01-30T13:21:37;5.13;;;2.97;;
51854;SDS011;37895;53.240;6.572;2024-01-30T13:24:03;3.35;;;2.40;;
51854;SDS011;37895;53.240;6.572;2024-01-30T13:28:57;5.05;;;2.70;;
51854;SDS011;37895;53.240;6.572;2024-01-30T13:31:23;4.63;;;2.95;;
51854;SDS011;37895;53.240;6.572;2024-01-30T13:33:48;3.72;;;2.65;;
51854;SDS011;37895;53.240;6.572;2024-01-30T13:36:14;3.10;;;2.80;;
51854;SDS011;37895;53.240;6.572;2024-01-30T13:38:40;3.45;;;2.83;;
51854;SDS011;37895;53.240;6.572;2024-01-30T13:41:06;3.65;;;2.80;;
51854;SDS011;37895;53.240;6.572;2024-01-30T13:43:32;3.70;;;2.72;;
51854;SDS011;37895;53.240;6.572;2024-01-30T13:45:57;4.38;;;2.95;;
51854;SDS011;37895;53.240;6.572;2024-01-30T13:48:23;3.97;;;2.88;;
51854;SDS011;37895;53.240;6.572;2024-01-30T13:50:49;4.25;;;3.22;;
51854;SDS011;37895;53.240;6.572;2024-01-30T13:53:15;5.57;;;3.05;;
51854;SDS011;37895;53.240;6.572;2024-01-30T13:55:40;6.03;;;3.20;;
51854;SDS011;37895;53.240;6.572;2024-01-30T13:58:06;3.38;;;2.95;;
51854;SDS011;37895;53.240;6.572;2024-01-30T14:00:32;4.43;;;2.97;;
51854;SDS011;37895;53.240;6.572;2024-01-30T14:02:59;3.28;;;2.65;;
51854;SDS011;37895;53.240;6.572;2024-01-30T14:07:51;4.32;;;3.00;;
51854;SDS011;37895;53.240;6.572;2024-01-30T14:10:17;7.07;;;2.95;;
51854;SDS011;37895;53.240;6.572;2024-01-30T14:12:43;5.75;;;2.92;;
51854;SDS011;37895;53.240;6.572;2024-01-30T14:15:09;6.47;;;3.33;;
51854;SDS011;37895;53.240;6.572;2024-01-30T14:17:36;4.47;;;3.40;;
51854;SDS011;37895;53.240;6.572;2024-01-30T14:20:05;3.53;;;2.65;;
51854;SDS011;37895;53.240;6.572;2024-01-30T14:22:31;3.47;;;3.17;;
51854;SDS011;37895;53.240;6.572;2024-01-30T14:24:58;4.25;;;3.30;;
51854;SDS011;37895;53.240;6.572;2024-01-30T14:27:24;3.63;;;2.70;;
51854;SDS011;37895;53.240;6.572;2024-01-30T14:29:50;4.63;;;3.00;;
51854;SDS011;37895;53.240;6.572;2024-01-30T14:32:15;5.85;;;3.00;;
51854;SDS011;37895;53.240;6.572;2024-01-30T14:34:41;3.90;;;2.83;;
51854;SDS011;37895;53.240;6.572;2024-01-30T14:37:07;4.57;;;3.10;;
51854;SDS011;37895;53.240;6.572;2024-01-30T14:41:59;6.43;;;3.65;;
51854;SDS011;37895;53.240;6.572;2024-01-30T14:44:24;4.25;;;3.42;;
51854;SDS011;37895;53.240;6.572;2024-01-30T14:46:50;4.50;;;4.10;;
51854;SDS011;37895;53.240;6.572;2024-01-30T14:49:16;4.95;;;4.18;;
51854;SDS011;37895;53.240;6.572;2024-01-30T14:51:42;5.18;;;4.20;;
51854;SDS011;37895;53.240;6.572;2024-01-30T14:54:08;6.25;;;4.80;;
51854;SDS011;37895;53.240;6.572;2024-01-30T14:56:33;4.97;;;4.45;;